Time;durP1;ratioP1;P1;durP2;ratioP2;P2;SDS_P1;SDS_P2;PMS_P1;PMS_P2;Temp;Humidity;BMP_temperature;BMP_pressure;BME280_temperature;BME280_humidity;BME280_pressure;Samples;Min_cycle;Max_cycle;Signal;HPM_P1;HPM_P2
2021/06/02 00:01:49;;;;;;;3.53;3.10;;;16.40;68.70;;;;;;5117045;28;20307;-77
2021/06/02 00:04:20;;;;;;;3.55;3.25;;;16.50;69.60;;;;;;5116777;28;20613;-78
2021/06/02 00:06:49;;;;;;;3.88;3.45;;;16.50;69.70;;;;;;5116838;27;20200;-78
2021/06/02 00:09:16;;;;;;;4.10;3.70;;;16.50;70.30;;;;;;5116508;28;20239;-79
2021/06/02 00:11:43;;;;;;;4.70;4.30;;;16.40;70.40;;;;;;5117384;28;20295;-78
2021/06/02 00:14:10;;;;;;;4.10;3.75;;;16.50;71.50;;;;;;5117815;28;20652;-78
2021/06/02 00:16:37;;;;;;;3.95;3.60;;;16.40;72.00;;;;;;5116141;28;20302;-78
2021/06/02 00:19:03;;;;;;;3.70;3.40;;;16.30;71.40;;;;;;5116671;28;20204;-78
2021/06/02 00:21:33;;;;;;;3.72;3.30;;;16.30;71.50;;;;;;5116287;28;20294;-78
2021/06/02 00:23:59;;;;;;;5.40;3.72;;;16.20;71.10;;;;;;5116041;28;20312;-78
2021/06/02 00:26:27;;;;;;;5.15;3.45;;;16.20;70.60;;;;;;5115114;28;20235;-78
2021/06/02 00:28:54;;;;;;;3.80;3.40;;;16.20;70.80;;;;;;5117588;28;20208;-79
2021/06/02 00:31:20;;;;;;;3.88;3.20;;;16.20;71.00;;;;;;5118629;28;20688;-78
2021/06/02 00:33:47;;;;;;;4.00;3.60;;;16.20;71.70;;;;;;5118466;28;20291;-79
2021/06/02 00:36:13;;;;;;;4.00;3.70;;;16.10;71.40;;;;;;5118607;28;20200;-79
2021/06/02 00:38:42;;;;;;;3.28;2.97;;;16.10;71.60;;;;;;5118958;28;20295;-80
2021/06/02 00:41:08;;;;;;;3.70;3.10;;;16.00;71.60;;;;;;5118758;28;20307;-78
2021/06/02 00:43:35;;;;;;;3.33;3.03;;;16.10;71.20;;;;;;5119435;28;20368;-78
2021/06/02 00:46:01;;;;;;;3.40;3.00;;;16.00;70.90;;;;;;5119070;28;20239;-79
2021/06/02 00:48:28;;;;;;;5.85;3.70;;;15.90;70.40;;;;;;5123304;28;20264;-79
2021/06/02 00:50:54;;;;;;;3.88;3.45;;;15.80;72.00;;;;;;5124066;28;20224;-79
2021/06/02 00:53:21;;;;;;;3.40;3.10;;;15.50;74.70;;;;;;5123730;28;20229;-79
2021/06/02 00:55:49;;;;;;;6.30;4.50;;;15.60;75.90;;;;;;5123484;28;20210;-79
2021/06/02 00:58:26;;;;;;;6.05;4.50;;;15.60;77.10;;;;;;5123546;28;20290;-79
2021/06/02 01:00:54;;;;;;;8.95;5.78;;;15.60;78.30;;;;;;5123225;28;20295;-79
2021/06/02 01:03:23;;;;;;;6.35;5.75;;;15.70;79.10;;;;;;5123108;28;20223;-78
2021/06/02 01:05:50;;;;;;;6.82;5.70;;;15.70;79.80;;;;;;5122595;28;20234;-79
2021/06/02 01:08:20;;;;;;;7.57;5.60;;;15.70;80.10;;;;;;5122864;28;20211;-79
2021/06/02 01:10:48;;;;;;;6.93;5.07;;;15.70;80.10;;;;;;5120494;28;20764;-79
2021/06/02 01:13:15;;;;;;;5.40;4.68;;;15.70;80.40;;;;;;5121458;28;20318;-78
2021/06/02 01:15:41;;;;;;;6.40;4.93;;;15.70;80.50;;;;;;5120927;28;20208;-79
2021/06/02 01:18:09;;;;;;;6.47;4.60;;;15.70;79.50;;;;;;5123628;28;20225;-79
2021/06/02 01:20:38;;;;;;;5.38;4.30;;;15.70;79.70;;;;;;5123428;28;20246;-79
2021/06/02 01:23:07;;;;;;;4.97;4.47;;;15.70;80.40;;;;;;5124013;28;20703;-79
2021/06/02 01:25:34;;;;;;;5.68;5.18;;;15.60;80.40;;;;;;5123080;28;20210;-79
2021/06/02 01:28:01;;;;;;;4.55;4.15;;;15.60;80.50;;;;;;5123127;28;20273;-79
2021/06/02 01:30:27;;;;;;;6.85;3.80;;;15.50;80.30;;;;;;5122996;28;20221;-79
2021/06/02 01:33:23;;;;;;;4.63;3.80;;;15.40;80.00;;;;;;5123523;28;20256;-79
2021/06/02 01:35:56;;;;;;;6.22;3.65;;;15.40;80.20;;;;;;5123047;28;20266;-79
2021/06/02 01:38:58;;;;;;;6.55;3.90;;;15.30;80.60;;;;;;5124016;28;20190;-79
2021/06/02 01:41:28;;;;;;;6.00;3.67;;;15.30;81.20;;;;;;5123815;28;20221;-79
2021/06/02 01:44:32;;;;;;;6.90;3.70;;;15.20;81.10;;;;;;5124178;28;20314;-79
2021/06/02 01:47:33;;;;;;;5.32;4.15;;;15.10;81.90;;;;;;5122943;28;20202;-79
2021/06/02 01:50:21;;;;;;;4.35;3.92;;;15.00;82.70;;;;;;5123852;28;20270;-79
2021/06/02 01:53:23;;;;;;;6.35;4.32;;;14.90;83.00;;;;;;5122660;28;20189;-79
2021/06/02 01:56:26;;;;;;;5.25;4.40;;;14.80;85.40;;;;;;5123730;28;20287;-79
2021/06/02 01:59:30;;;;;;;4.03;3.63;;;14.70;86.60;;;;;;5099840;28;20205;-79
2021/06/02 02:02:13;;;;;;;10.15;6.10;;;14.80;85.40;;;;;;5122810;28;20190;-79
2021/06/02 02:05:14;;;;;;;6.82;5.22;;;14.80;85.70;;;;;;5123645;28;20252;-79
2021/06/02 02:08:08;;;;;;;5.90;5.05;;;14.80;86.90;;;;;;5123149;28;20284;-79
2021/06/02 02:10:40;;;;;;;5.63;5.00;;;14.80;87.10;;;;;;5121407;28;20359;-79
2021/06/02 02:13:25;;;;;;;4.63;4.10;;;14.70;86.50;;;;;;5116755;28;20223;-79
2021/06/02 02:16:35;;;;;;;4.60;4.20;;;14.70;86.80;;;;;;5117241;28;20346;-78
2021/06/02 02:19:16;;;;;;;4.22;3.83;;;14.70;86.40;;;;;;5081626;28;20283;-78
2021/06/02 02:21:54;;;;;;;6.45;3.92;;;14.70;86.00;;;;;;5119747;28;20186;-79
2021/06/02 02:24:30;;;;;;;5.28;4.30;;;14.70;86.60;;;;;;5120127;28;20307;-78
2021/06/02 02:27:01;;;;;;;5.15;4.40;;;14.70;86.20;;;;;;5120281;28;20342;-78
2021/06/02 02:29:44;;;;;;;4.97;4.47;;;14.70;86.10;;;;;;5120207;28;20260;-78
2021/06/02 02:32:25;;;;;;;5.28;4.20;;;14.70;87.30;;;;;;5120871;28;20201;-79
2021/06/02 02:35:14;;;;;;;5.82;4.40;;;14.60;88.40;;;;;;5120639;28;20205;-78
2021/06/02 02:37:48;;;;;;;5.22;4.75;;;14.40;89.40;;;;;;5111638;28;20292;-79
2021/06/02 02:40:25;;;;;;;5.72;4.28;;;14.10;90.40;;;;;;5121637;28;20327;-78
2021/06/02 02:43:00;;;;;;;5.63;4.80;;;14.00;91.20;;;;;;5121453;28;20734;-78
2021/06/02 02:45:29;;;;;;;4.20;3.80;;;14.00;91.60;;;;;;5120523;28;20296;-78
2021/06/02 02:48:09;;;;;;;7.30;5.25;;;14.10;91.70;;;;;;5123820;28;20225;-79
2021/06/02 02:50:42;;;;;;;6.97;4.70;;;14.10;91.60;;;;;;5125479;28;20346;-79
2021/06/02 02:53:12;;;;;;;4.50;4.10;;;14.10;91.70;;;;;;5127993;28;20185;-79
2021/06/02 02:55:39;;;;;;;5.15;4.05;;;14.10;91.70;;;;;;5127117;28;20752;-79
2021/06/02 02:58:16;;;;;;;6.45;4.60;;;14.20;91.40;;;;;;5128009;28;20266;-79
2021/06/02 03:00:47;;;;;;;4.60;4.20;;;14.10;91.50;;;;;;5127826;28;20259;-79
2021/06/02 03:03:22;;;;;;;4.85;4.35;;;14.00;91.80;;;;;;5128178;28;20277;-79
2021/06/02 03:05:59;;;;;;;4.55;4.15;;;14.00;91.80;;;;;;5127809;27;20208;-79
2021/06/02 03:08:34;;;;;;;4.97;4.38;;;14.00;91.70;;;;;;5127768;28;20201;-79
2021/06/02 03:11:09;;;;;;;4.95;4.20;;;14.00;91.60;;;;;;5126971;27;20288;-78
2021/06/02 03:13:43;;;;;;;4.93;3.83;;;13.80;91.70;;;;;;5126914;27;20228;-79
2021/06/02 03:16:15;;;;;;;4.72;4.30;;;13.60;92.40;;;;;;5127012;28;20269;-78
2021/06/02 03:18:46;;;;;;;7.55;4.10;;;13.60;92.80;;;;;;5126828;28;20304;-79
2021/06/02 03:21:51;;;;;;;4.05;3.65;;;13.60;92.80;;;;;;5126957;27;20221;-79
2021/06/02 03:24:34;;;;;;;3.80;3.40;;;13.60;92.90;;;;;;5063678;28;20215;-79
2021/06/02 03:27:06;;;;;;;4.50;4.10;;;13.50;93.00;;;;;;5063769;28;20279;-79
2021/06/02 03:32:15;;;;;;;4.55;3.75;;;13.50;93.50;;;;;;5092814;22;20262;-80
2021/06/02 03:34:55;;;;;;;3.92;3.47;;;13.50;93.30;;;;;;5045955;28;20263;-80
2021/06/02 03:37:35;;;;;;;4.07;3.65;;;13.60;93.20;;;;;;5045877;28;20250;-80
2021/06/02 03:40:17;;;;;;;5.60;3.83;;;13.70;93.40;;;;;;5045146;28;20268;-80
2021/06/02 03:42:48;;;;;;;4.40;4.00;;;13.70;93.50;;;;;;5046090;28;20231;-80
2021/06/02 03:45:44;;;;;;;4.97;4.00;;;13.70;93.80;;;;;;5045856;28;20237;-80
2021/06/02 03:48:21;;;;;;;5.63;5.07;;;13.40;94.60;;;;;;5037470;28;20207;-79
2021/06/02 03:51:04;;;;;;;5.47;4.90;;;13.30;95.50;;;;;;5040987;28;20291;-79
2021/06/02 03:53:42;;;;;;;6.57;5.00;;;13.00;96.40;;;;;;5041878;28;20206;-80
2021/06/02 03:56:28;;;;;;;6.07;5.35;;;12.90;97.30;;;;;;5041585;28;20268;-79
2021/06/02 03:59:04;;;;;;;7.05;5.38;;;13.00;98.10;;;;;;5042799;28;20210;-79
2021/06/02 04:01:45;;;;;;;6.88;4.65;;;13.10;98.00;;;;;;5041139;28;20227;-79
2021/06/02 04:04:17;;;;;;;5.35;4.78;;;13.20;98.00;;;;;;5043358;28;20315;-79
2021/06/02 04:06:51;;;;;;;6.13;5.03;;;13.30;97.80;;;;;;5042941;28;20310;-79
2021/06/02 04:09:24;;;;;;;5.05;4.53;;;13.40;97.70;;;;;;5042596;28;20190;-79
2021/06/02 04:12:01;;;;;;;4.55;4.15;;;13.40;97.20;;;;;;5041959;28;20315;-80
2021/06/02 04:14:32;;;;;;;6.18;4.65;;;13.50;97.30;;;;;;5042983;28;20606;-79
2021/06/02 04:16:59;;;;;;;5.45;4.95;;;13.40;97.30;;;;;;5042346;28;20285;-79
2021/06/02 04:19:28;;;;;;;6.13;4.63;;;13.40;97.60;;;;;;5042411;28;20227;-79
2021/06/02 04:22:00;;;;;;;6.28;4.70;;;13.50;97.40;;;;;;5041888;28;20273;-79
2021/06/02 04:24:29;;;;;;;5.63;4.70;;;13.50;97.00;;;;;;5041966;28;20240;-79
2021/06/02 04:26:55;;;;;;;6.10;4.47;;;13.50;96.80;;;;;;5042924;28;20248;-80
2021/06/02 04:29:24;;;;;;;4.47;4.07;;;13.70;96.20;;;;;;5042443;28;20268;-79
2021/06/02 04:31:54;;;;;;;5.35;4.45;;;13.70;96.10;;;;;;5038576;28;20820;-79
2021/06/02 04:34:21;;;;;;;5.72;4.13;;;13.80;96.70;;;;;;5037324;28;20294;-79
2021/06/02 04:36:50;;;;;;;6.22;5.45;;;13.80;97.50;;;;;;5036540;28;20210;-79
2021/06/02 04:39:19;;;;;;;6.05;5.03;;;13.80;97.40;;;;;;5038486;28;20211;-79
2021/06/02 04:41:47;;;;;;;5.60;5.03;;;13.80;97.60;;;;;;5037566;28;20227;-79
2021/06/02 04:44:15;;;;;;;6.80;6.10;;;13.80;98.50;;;;;;5037555;28;20681;-79
2021/06/02 04:46:42;;;;;;;7.00;4.95;;;13.80;97.30;;;;;;5037852;28;20199;-79
2021/06/02 04:49:09;;;;;;;5.82;5.15;;;13.80;97.10;;;;;;5037568;28;20208;-79
2021/06/02 04:52:00;;;;;;;5.40;4.90;;;13.60;97.70;;;;;;5037853;28;20267;-78
2021/06/02 04:55:02;;;;;;;6.20;5.20;;;13.50;99.10;;;;;;5037697;28;20207;-79
2021/06/02 04:58:17;;;;;;;6.20;5.60;;;13.50;99.40;;;;;;5030738;28;20209;-79
2021/06/02 05:01:28;;;;;;;6.00;5.30;;;13.40;99.50;;;;;;5037305;28;20206;-79
2021/06/02 05:04:27;;;;;;;6.68;5.45;;;13.20;99.90;;;;;;5038931;28;20224;-80
2021/06/02 05:07:05;;;;;;;6.32;5.70;;;13.00;99.90;;;;;;5033040;28;20200;-78
2021/06/02 05:10:14;;;;;;;6.75;5.25;;;13.00;99.90;;;;;;5039625;28;20204;-78
2021/06/02 05:13:10;;;;;;;7.55;5.97;;;13.10;99.90;;;;;;5038852;28;20266;-78
2021/06/02 05:16:07;;;;;;;8.15;6.35;;;13.30;99.90;;;;;;5037592;28;20295;-79
2021/06/02 05:19:20;;;;;;;7.85;6.47;;;13.50;99.90;;;;;;5039289;28;20200;-79
2021/06/02 05:22:12;;;;;;;7.18;6.47;;;13.60;99.90;;;;;;5004847;28;20311;-79
2021/06/02 05:25:17;;;;;;;7.40;6.50;;;13.70;99.90;;;;;;5037805;28;20208;-78
2021/06/02 05:28:08;;;;;;;7.63;6.20;;;13.70;99.90;;;;;;5017699;28;20204;-78
2021/06/02 05:31:13;;;;;;;8.23;6.45;;;13.70;99.90;;;;;;5037291;28;20207;-79
2021/06/02 05:34:14;;;;;;;10.65;6.70;;;13.80;99.90;;;;;;5037258;28;20231;-79
2021/06/02 05:37:02;;;;;;;10.00;7.85;;;13.80;99.90;;;;;;5037559;28;20219;-78
2021/06/02 05:40:12;;;;;;;8.25;7.05;;;13.90;99.90;;;;;;5037938;28;20204;-79
2021/06/02 05:43:07;;;;;;;9.77;6.95;;;14.00;99.90;;;;;;5038145;28;20315;-79
2021/06/02 05:46:03;;;;;;;10.10;7.70;;;13.90;99.90;;;;;;5037952;28;20216;-78
2021/06/02 05:49:18;;;;;;;11.63;7.65;;;14.10;99.90;;;;;;5037475;28;20261;-78
2021/06/02 05:52:00;;;;;;;8.30;7.07;;;14.20;99.90;;;;;;5037948;28;20697;-78
2021/06/02 05:55:06;;;;;;;9.02;7.63;;;14.00;99.90;;;;;;5039383;28;20184;-78
2021/06/02 05:58:15;;;;;;;9.02;7.15;;;14.10;99.90;;;;;;5038509;28;20204;-79
2021/06/02 06:01:14;;;;;;;8.18;6.90;;;14.10;99.90;;;;;;5040535;28;20204;-79
2021/06/02 06:04:14;;;;;;;11.20;7.50;;;14.30;99.90;;;;;;5043907;28;20266;-80
2021/06/02 06:06:44;;;;;;;9.55;7.20;;;14.30;99.60;;;;;;5044961;28;20208;-80
2021/06/02 06:10:10;;;;;;;10.00;7.35;;;14.40;99.00;;;;;;5045133;28;20268;-80
2021/06/02 06:13:12;;;;;;;7.97;7.18;;;14.40;99.10;;;;;;5044516;28;20228;-81
2021/06/02 06:16:14;;;;;;;9.10;7.20;;;14.40;99.10;;;;;;5044550;28;20291;-80
2021/06/02 06:18:57;;;;;;;11.13;6.85;;;14.50;98.90;;;;;;5043988;28;20243;-80
2021/06/02 06:21:58;;;;;;;8.98;6.70;;;14.60;98.70;;;;;;5042382;28;20220;-80
2021/06/02 06:24:29;;;;;;;9.48;6.13;;;14.80;98.20;;;;;;5043309;28;20647;-79
2021/06/02 06:27:03;;;;;;;6.80;6.10;;;15.00;97.70;;;;;;5047017;28;20204;-80
2021/06/02 06:29:37;;;;;;;6.95;6.35;;;15.20;96.90;;;;;;5047272;28;20228;-79
2021/06/02 06:32:06;;;;;;;8.20;6.75;;;15.40;95.70;;;;;;5047051;28;20748;-79
2021/06/02 06:34:35;;;;;;;10.68;6.35;;;15.60;95.40;;;;;;5046582;28;20202;-79
2021/06/02 06:37:03;;;;;;;6.80;5.78;;;15.70;95.30;;;;;;5046612;28;20660;-79
2021/06/02 06:39:41;;;;;;;7.32;6.22;;;15.90;95.20;;;;;;5046338;28;20213;-80
2021/06/02 06:42:13;;;;;;;8.05;6.10;;;16.00;95.00;;;;;;5045716;28;20236;-79
2021/06/02 06:44:43;;;;;;;8.05;5.85;;;16.10;94.30;;;;;;5046053;28;20250;-80
2021/06/02 06:47:12;;;;;;;18.98;6.13;;;16.30;94.10;;;;;;5044831;28;20306;-79
2021/06/02 06:49:40;;;;;;;8.50;5.82;;;16.50;94.00;;;;;;5045095;28;20257;-80
2021/06/02 06:52:06;;;;;;;6.97;5.85;;;16.80;94.10;;;;;;5043422;28;20250;-79
2021/06/02 06:54:34;;;;;;;6.72;5.60;;;17.00;94.00;;;;;;5045967;28;20692;-79
2021/06/02 06:57:01;;;;;;;13.40;6.63;;;17.20;93.10;;;;;;5043172;28;20292;-79
2021/06/02 06:59:28;;;;;;;6.85;5.45;;;17.40;92.40;;;;;;5040993;28;20242;-79
2021/06/02 07:01:56;;;;;;;7.80;5.47;;;17.90;91.50;;;;;;5039603;28;20234;-79
2021/06/02 07:04:23;;;;;;;6.40;5.80;;;18.20;90.80;;;;;;5040707;28;20606;-79
2021/06/02 07:06:51;;;;;;;7.45;5.95;;;18.50;90.10;;;;;;5040458;28;20298;-79
2021/06/02 07:09:17;;;;;;;8.00;5.82;;;19.10;86.90;;;;;;5040688;28;20215;-79
2021/06/02 07:11:44;;;;;;;5.70;5.20;;;19.50;84.40;;;;;;5039935;28;20306;-79
2021/06/02 07:14:12;;;;;;;6.30;5.65;;;19.80;82.90;;;;;;5040589;28;20200;-79
2021/06/02 07:16:40;;;;;;;6.07;5.28;;;19.90;81.60;;;;;;5041455;28;20208;-79
2021/06/02 07:19:09;;;;;;;7.40;6.32;;;19.90;80.30;;;;;;5041091;28;20228;-80
2021/06/02 07:21:39;;;;;;;7.00;5.63;;;19.90;79.30;;;;;;5040410;28;20260;-79
2021/06/02 07:24:06;;;;;;;5.60;5.00;;;20.00;79.40;;;;;;5041098;28;20311;-79
2021/06/02 07:26:34;;;;;;;5.40;4.90;;;19.90;77.70;;;;;;5040396;28;20204;-79
2021/06/02 07:29:00;;;;;;;6.07;5.47;;;19.80;76.20;;;;;;5038936;28;20239;-77
2021/06/02 07:31:27;;;;;;;5.90;5.30;;;19.80;77.00;;;;;;5036109;28;20246;-79
2021/06/02 07:33:53;;;;;;;5.30;4.55;;;19.80;77.30;;;;;;5038416;28;20277;-78
2021/06/02 07:36:21;;;;;;;5.30;4.80;;;19.90;79.10;;;;;;5037896;28;20201;-77
2021/06/02 07:38:47;;;;;;;4.85;4.40;;;19.90;77.50;;;;;;5035081;28;20287;-76
2021/06/02 07:41:13;;;;;;;5.30;4.80;;;20.00;75.20;;;;;;5034432;28;20311;-76
2021/06/02 07:43:40;;;;;;;5.30;4.53;;;19.90;77.10;;;;;;5034481;28;20493;-78
2021/06/02 07:46:06;;;;;;;4.73;4.33;;;20.10;76.10;;;;;;5037236;28;20209;-78
2021/06/02 07:48:32;;;;;;;5.13;4.63;;;20.30;78.20;;;;;;5036393;28;20527;-78
2021/06/02 07:50:59;;;;;;;7.57;4.43;;;20.90;72.80;;;;;;5034680;28;20468;-76
2021/06/02 07:53:27;;;;;;;4.50;4.10;;;21.50;70.20;;;;;;5034303;28;20453;-76
2021/06/02 07:55:53;;;;;;;4.87;4.37;;;21.90;67.10;;;;;;5034797;28;20450;-76
2021/06/02 07:58:19;;;;;;;5.60;4.30;;;22.10;66.70;;;;;;5034363;28;20454;-76
2021/06/02 08:00:46;;;;;;;5.03;4.53;;;21.90;66.70;;;;;;5034250;28;20541;-76
2021/06/02 08:03:12;;;;;;;6.00;4.30;;;21.90;66.00;;;;;;5033841;28;20947;-76
2021/06/02 08:05:38;;;;;;;6.00;5.20;;;21.80;63.50;;;;;;5033868;28;20490;-77
2021/06/02 08:08:06;;;;;;;7.23;4.70;;;21.80;64.00;;;;;;5035894;28;20457;-77
2021/06/02 08:10:34;;;;;;;4.20;3.73;;;21.90;63.90;;;;;;5035651;28;20519;-76
2021/06/02 08:13:01;;;;;;;4.73;4.33;;;22.30;60.30;;;;;;5033915;28;20447;-79
2021/06/02 08:15:28;;;;;;;4.60;4.20;;;22.60;57.70;;;;;;5033530;28;20453;-77
2021/06/02 08:17:55;;;;;;;4.37;4.00;;;23.30;58.30;;;;;;5034137;28;20457;-76
2021/06/02 08:20:21;;;;;;;5.77;4.27;;;24.40;56.30;;;;;;5034217;28;20451;-77
2021/06/02 08:22:48;;;;;;;5.07;4.67;;;25.90;52.00;;;;;;5033795;28;20551;-77
2021/06/02 08:25:16;;;;;;;6.80;4.20;;;27.20;49.40;;;;;;5033552;28;20480;-75
2021/06/02 08:27:45;;;;;;;4.53;4.13;;;28.10;47.20;;;;;;5033814;28;20453;-76
2021/06/02 08:30:12;;;;;;;5.97;4.30;;;29.00;43.80;;;;;;5034315;28;20538;-76
2021/06/02 08:32:39;;;;;;;4.37;3.97;;;30.00;42.10;;;;;;5034632;28;20933;-76
2021/06/02 08:35:08;;;;;;;4.10;3.70;;;30.60;39.00;;;;;;5034895;28;20449;-77
2021/06/02 08:37:35;;;;;;;4.57;4.17;;;32.00;36.80;;;;;;5034828;28;20930;-76
2021/06/02 08:40:01;;;;;;;5.80;4.10;;;32.10;35.20;;;;;;5034729;28;20999;-76
2021/06/02 08:42:27;;;;;;;4.83;3.90;;;33.20;33.90;;;;;;5034975;28;20912;-76
2021/06/02 08:44:55;;;;;;;4.53;4.23;;;32.40;34.10;;;;;;5034553;28;20519;-77
2021/06/02 08:47:21;;;;;;;4.77;3.60;;;33.50;34.30;;;;;;5033772;28;20948;-76
2021/06/02 08:49:48;;;;;;;5.10;4.00;;;34.60;33.50;;;;;;5034611;28;20533;-76
2021/06/02 08:52:14;;;;;;;4.40;4.00;;;35.40;31.70;;;;;;5034933;28;20550;-76
2021/06/02 08:54:40;;;;;;;4.37;4.07;;;36.60;30.50;;;;;;5034786;28;20531;-76
2021/06/02 08:57:08;;;;;;;3.63;3.43;;;37.70;28.70;;;;;;5034724;28;20565;-77
2021/06/02 08:59:35;;;;;;;5.90;3.80;;;38.00;28.10;;;;;;5034266;28;20449;-76
2021/06/02 09:02:06;;;;;;;3.70;3.50;;;38.80;27.40;;;;;;5033996;28;20467;-76
2021/06/02 09:04:33;;;;;;;4.43;3.63;;;39.00;26.40;;;;;;5034264;28;20483;-76
2021/06/02 09:07:04;;;;;;;4.03;3.73;;;38.60;26.70;;;;;;5034435;28;20994;-76
2021/06/02 09:09:30;;;;;;;4.37;3.97;;;39.10;26.20;;;;;;5034567;28;20447;-76
2021/06/02 09:12:02;;;;;;;3.90;3.30;;;39.80;26.40;;;;;;5033746;28;20467;-77
2021/06/02 09:14:30;;;;;;;4.10;3.70;;;40.90;25.50;;;;;;5034319;28;20439;-76
2021/06/02 09:16:58;;;;;;;3.77;3.57;;;41.80;24.50;;;;;;5034136;28;20501;-76
2021/06/02 09:19:43;;;;;;;5.83;3.53;;;42.60;23.70;;;;;;5034311;28;20439;-76
2021/06/02 09:22:12;;;;;;;4.73;4.17;;;43.40;22.30;;;;;;5033951;28;20505;-77
2021/06/02 09:24:53;;;;;;;3.30;3.10;;;42.50;21.70;;;;;;5033983;28;20478;-77
2021/06/02 09:27:40;;;;;;;3.60;3.40;;;42.30;21.80;;;;;;5034181;28;20529;-76
2021/06/02 09:30:09;;;;;;;3.53;3.23;;;42.60;22.40;;;;;;5034035;28;20541;-76
2021/06/02 09:32:43;;;;;;;3.67;3.40;;;41.30;21.40;;;;;;5033856;28;20482;-76
2021/06/02 09:35:11;;;;;;;4.90;3.70;;;41.50;21.90;;;;;;5033715;28;20439;-76
2021/06/02 09:37:55;;;;;;;3.60;2.87;;;40.60;23.60;;;;;;5033963;28;20443;-77
2021/06/02 09:40:23;;;;;;;3.10;2.90;;;40.90;22.30;;;;;;5033747;28;20820;-76
2021/06/02 09:42:50;;;;;;;3.27;3.07;;;41.80;21.80;;;;;;5034015;28;20498;-76
2021/06/02 09:45:17;;;;;;;3.00;2.90;;;42.20;21.50;;;;;;5033436;28;20474;-76
2021/06/02 09:47:45;;;;;;;3.20;3.00;;;43.10;21.90;;;;;;5033826;28;20882;-76
2021/06/02 09:50:15;;;;;;;2.77;2.60;;;42.50;21.10;;;;;;5033339;28;20541;-76
2021/06/02 09:52:45;;;;;;;2.70;2.60;;;42.20;21.50;;;;;;5034072;28;20519;-76
2021/06/02 09:55:17;;;;;;;7.30;2.90;;;41.80;21.30;;;;;;5033977;28;20447;-76
2021/06/02 09:57:44;;;;;;;3.40;3.10;;;41.60;21.50;;;;;;5033604;28;20533;-76
2021/06/02 10:00:12;;;;;;;3.23;3.03;;;41.70;20.80;;;;;;5036358;28;20541;-77
2021/06/02 10:02:38;;;;;;;3.10;2.80;;;41.90;21.10;;;;;;5037461;28;20470;-77
2021/06/02 10:05:07;;;;;;;2.83;2.63;;;42.20;21.00;;;;;;5037823;28;20640;-76
2021/06/02 10:07:43;;;;;;;3.30;3.10;;;42.50;20.50;;;;;;5037884;28;20501;-76
2021/06/02 10:10:14;;;;;;;4.80;3.10;;;42.00;21.10;;;;;;5037168;28;20481;-76
2021/06/02 10:12:56;;;;;;;3.50;3.30;;;41.30;20.90;;;;;;5037395;28;20474;-76
2021/06/02 10:15:26;;;;;;;3.27;3.07;;;40.50;21.10;;;;;;5037522;28;20435;-76
2021/06/02 10:17:53;;;;;;;3.93;3.10;;;38.10;22.40;;;;;;5037729;28;20550;-76
2021/06/02 10:20:20;;;;;;;3.40;3.20;;;36.40;23.60;;;;;;5037575;28;20454;-76
2021/06/02 10:22:53;;;;;;;3.30;3.10;;;35.80;25.70;;;;;;5037352;28;20473;-76
2021/06/02 10:25:24;;;;;;;3.30;3.10;;;36.60;24.40;;;;;;5037143;28;20509;-75
2021/06/02 10:27:54;;;;;;;3.50;3.30;;;37.70;24.50;;;;;;5037464;28;20451;-76
2021/06/02 10:30:23;;;;;;;3.57;3.27;;;37.40;24.40;;;;;;5037174;28;20461;-76
2021/06/02 10:32:50;;;;;;;3.43;3.23;;;36.70;24.10;;;;;;5036792;28;20480;-76
2021/06/02 10:35:17;;;;;;;3.67;3.37;;;35.80;24.60;;;;;;5037684;28;20534;-76
2021/06/02 10:37:44;;;;;;;3.87;3.00;;;34.90;25.30;;;;;;5037083;28;20447;-76
2021/06/02 10:40:16;;;;;;;3.50;3.20;;;34.60;25.90;;;;;;5036767;28;20770;-76
2021/06/02 10:42:48;;;;;;;3.37;3.07;;;34.00;26.60;;;;;;5036542;28;20470;-76
2021/06/02 10:45:20;;;;;;;3.00;2.80;;;33.30;26.50;;;;;;5037190;28;20564;-76
2021/06/02 10:47:53;;;;;;;3.67;3.37;;;32.50;26.90;;;;;;5036878;28;20441;-76
2021/06/02 10:50:35;;;;;;;3.60;3.33;;;32.00;27.50;;;;;;5036508;28;20450;-74
2021/06/02 10:53:12;;;;;;;3.40;3.20;;;31.00;28.30;;;;;;5036958;28;20895;-76
2021/06/02 10:55:42;;;;;;;4.57;3.20;;;30.10;28.90;;;;;;5037060;28;20448;-75
2021/06/02 10:58:29;;;;;;;3.80;3.50;;;29.60;29.40;;;;;;5036628;28;20451;-75
2021/06/02 11:01:12;;;;;;;4.50;3.57;;;29.30;30.00;;;;;;5036678;28;20887;-76
2021/06/02 11:03:39;;;;;;;3.60;3.40;;;28.80;30.60;;;;;;5034815;28;20456;-76
2021/06/02 11:06:34;;;;;;;4.03;3.73;;;28.70;30.90;;;;;;5036769;28;20537;-76
2021/06/02 11:09:20;;;;;;;5.13;4.63;;;28.20;31.00;;;;;;5029057;28;20490;-75
2021/06/02 11:11:49;;;;;;;3.63;3.33;;;28.20;33.80;;;;;;5035742;28;20501;-75
2021/06/02 11:14:25;;;;;;;3.27;3.07;;;28.30;33.60;;;;;;5037151;28;20450;-75
2021/06/02 11:17:16;;;;;;;4.27;3.10;;;28.40;34.20;;;;;;5036356;28;20433;-75
2021/06/02 11:19:51;;;;;;;3.93;3.63;;;28.40;33.30;;;;;;5030186;28;20447;-76
2021/06/02 11:22:20;;;;;;;4.03;3.67;;;28.60;31.20;;;;;;5036698;28;20548;-75
2021/06/02 11:24:57;;;;;;;3.60;3.30;;;28.50;31.30;;;;;;5036386;28;20570;-75
2021/06/02 11:27:49;;;;;;;4.10;3.70;;;28.40;32.10;;;;;;5036116;28;20442;-75
2021/06/02 11:30:26;;;;;;;3.30;3.10;;;28.40;32.30;;;;;;5035987;28;20454;-75
2021/06/02 11:33:07;;;;;;;3.20;3.00;;;28.30;31.00;;;;;;5035587;28;20528;-76
2021/06/02 11:36:08;;;;;;;3.80;3.50;;;28.30;32.30;;;;;;5035945;28;20825;-76
2021/06/02 11:38:36;;;;;;;3.67;3.37;;;28.40;31.70;;;;;;5035889;28;20445;-76
2021/06/02 11:41:03;;;;;;;3.60;3.40;;;28.30;32.70;;;;;;5035466;28;20509;-75
2021/06/02 11:43:31;;;;;;;3.50;3.20;;;28.20;32.10;;;;;;5036441;28;20526;-75
2021/06/02 11:46:00;;;;;;;3.97;3.63;;;28.20;33.70;;;;;;5035566;28;20487;-75
2021/06/02 11:48:29;;;;;;;5.27;4.10;;;28.20;32.30;;;;;;5035699;28;20447;-75
2021/06/02 11:50:59;;;;;;;4.47;4.07;;;28.10;33.70;;;;;;5035139;28;20475;-75
2021/06/02 11:53:45;;;;;;;3.77;3.47;;;28.10;34.10;;;;;;5035640;28;20925;-76
2021/06/02 11:56:12;;;;;;;4.97;3.83;;;28.50;33.30;;;;;;5035910;28;20919;-75
2021/06/02 11:58:41;;;;;;;4.00;3.30;;;28.80;33.30;;;;;;5035559;28;20477;-76
2021/06/02 12:01:07;;;;;;;3.50;3.23;;;28.50;32.70;;;;;;5035173;28;20463;-75
2021/06/02 12:03:34;;;;;;;7.20;3.23;;;28.60;33.00;;;;;;5035885;28;20781;-76
2021/06/02 12:06:01;;;;;;;3.40;3.20;;;28.60;32.50;;;;;;5035517;28;20479;-76
2021/06/02 12:08:27;;;;;;;3.23;3.03;;;28.50;32.30;;;;;;5035730;28;20453;-76
2021/06/02 12:10:56;;;;;;;3.67;3.40;;;28.50;32.50;;;;;;5035194;28;20550;-76
2021/06/02 12:13:24;;;;;;;4.50;4.10;;;28.30;32.80;;;;;;5035206;28;20446;-75
2021/06/02 12:15:53;;;;;;;3.77;3.47;;;28.10;32.60;;;;;;5035067;28;20923;-76
2021/06/02 12:18:36;;;;;;;5.33;3.77;;;27.80;33.20;;;;;;5035355;28;20479;-75
2021/06/02 12:21:14;;;;;;;3.80;3.50;;;27.90;33.20;;;;;;5034763;28;20825;-76
2021/06/02 12:23:54;;;;;;;3.80;3.40;;;28.00;34.10;;;;;;5034269;28;20455;-76
2021/06/02 12:26:24;;;;;;;3.47;3.20;;;28.00;33.00;;;;;;5034889;28;20534;-76
2021/06/02 12:28:51;;;;;;;3.90;3.50;;;28.10;33.10;;;;;;5035191;28;20585;-75
2021/06/02 12:31:41;;;;;;;3.97;3.67;;;28.30;33.60;;;;;;5034904;28;20566;-75
2021/06/02 12:34:13;;;;;;;3.63;3.27;;;28.10;33.10;;;;;;5034650;28;20451;-76
2021/06/02 12:36:46;;;;;;;4.27;3.43;;;28.20;34.00;;;;;;5034791;28;20535;-76
2021/06/02 12:39:15;;;;;;;4.13;3.57;;;28.40;33.00;;;;;;5034833;28;20501;-75
2021/06/02 12:41:44;;;;;;;3.27;3.07;;;28.20;32.70;;;;;;5034496;28;20505;-76
2021/06/02 12:44:11;;;;;;;3.80;3.50;;;28.10;33.90;;;;;;5036307;28;20451;-75
2021/06/02 12:46:39;;;;;;;3.67;3.47;;;28.20;33.60;;;;;;5034550;28;20542;-75
2021/06/02 12:49:07;;;;;;;3.50;3.20;;;28.40;32.50;;;;;;5034525;28;20447;-76
2021/06/02 12:51:33;;;;;;;3.83;3.53;;;28.00;32.80;;;;;;5034511;28;20593;-75
2021/06/02 12:54:00;;;;;;;3.23;3.03;;;27.90;33.40;;;;;;5035014;28;20451;-75
2021/06/02 12:56:27;;;;;;;3.60;3.30;;;28.10;33.40;;;;;;5034787;28;20533;-75
2021/06/02 12:58:56;;;;;;;3.20;3.00;;;28.20;33.00;;;;;;5034247;28;20447;-76
2021/06/02 13:01:28;;;;;;;4.20;3.90;;;28.20;33.90;;;;;;5034283;28;20585;-75
2021/06/02 13:03:58;;;;;;;3.47;3.17;;;27.90;32.50;;;;;;5034374;28;20442;-75
2021/06/02 13:06:29;;;;;;;3.50;3.20;;;27.90;33.80;;;;;;5034403;28;20477;-75
2021/06/02 13:08:56;;;;;;;3.43;3.23;;;28.00;34.10;;;;;;5035041;28;20489;-76
2021/06/02 13:11:27;;;;;;;3.00;2.80;;;28.20;32.70;;;;;;5033731;28;20507;-76
2021/06/02 13:13:54;;;;;;;5.43;3.47;;;28.40;33.70;;;;;;5034554;28;20447;-76
2021/06/02 13:16:21;;;;;;;4.00;3.20;;;28.60;32.90;;;;;;5033976;28;20446;-76
2021/06/02 13:18:57;;;;;;;3.90;3.50;;;29.00;32.60;;;;;;5034294;28;20488;-76
2021/06/02 13:21:28;;;;;;;6.80;3.70;;;29.20;32.60;;;;;;5033590;28;20925;-76
2021/06/02 13:24:08;;;;;;;3.47;3.23;;;29.20;32.00;;;;;;5033932;28;20450;-76
2021/06/02 13:26:34;;;;;;;4.30;2.80;;;29.10;31.60;;;;;;5034382;28;20496;-75
2021/06/02 13:29:01;;;;;;;3.63;2.93;;;28.80;32.80;;;;;;5034147;28;20443;-76